createdAt,value
2018-11-13T00:00:30.338Z,101313.19
2018-11-13T00:01:32.233Z,101320.09
2018-11-13T00:02:34.023Z,101321.40
2018-11-13T00:03:35.802Z,101325.84
2018-11-13T00:04:37.748Z,101330.15
2018-11-13T00:05:39.527Z,101329.77
2018-11-13T00:06:41.276Z,101329.23
2018-11-13T00:07:43.405Z,101322.70
2018-11-13T00:08:45.232Z,101325.70
2018-11-13T00:09:47.001Z,101324.78
2018-11-13T00:10:48.891Z,101324.93
2018-11-13T00:11:50.648Z,101321.40
2018-11-13T00:12:53.780Z,101315.27
2018-11-13T00:13:55.554Z,101315.64
2018-11-13T00:14:57.379Z,101318.25
2018-11-13T00:15:59.143Z,101329.23
2018-11-13T00:17:00.909Z,101332.60
2018-11-13T00:18:02.734Z,101332.60
2018-11-13T00:19:04.500Z,101331.84
2018-11-13T00:20:06.275Z,101324.78
2018-11-13T00:21:08.050Z,101330.38
2018-11-13T00:22:09.847Z,101332.98
2018-11-13T00:23:11.628Z,101325.16
2018-11-13T00:24:13.389Z,101330.38
2018-11-13T00:25:16.279Z,101330.76
2018-11-13T00:26:18.570Z,101334.29
2018-11-13T00:27:20.388Z,101335.21
2018-11-13T00:28:22.155Z,101335.59
2018-11-13T00:29:23.979Z,101330.76
2018-11-13T00:30:25.764Z,101331.30
2018-11-13T00:31:27.534Z,101330.38
2018-11-13T00:32:29.643Z,101332.06
2018-11-13T00:33:31.391Z,101328.53
2018-11-13T00:34:33.140Z,101330.76
2018-11-13T00:35:34.918Z,101330.76
2018-11-13T00:36:36.681Z,101333.37
2018-11-13T00:37:38.442Z,101335.06
2018-11-13T00:38:41.639Z,101327.23
2018-11-13T00:39:43.494Z,101331.69
2018-11-13T00:40:45.277Z,101324.63
2018-11-13T00:41:47.060Z,101328.53
2018-11-13T00:42:49.311Z,101328.53
2018-11-13T00:43:51.101Z,101329.45
2018-11-13T00:44:52.885Z,101333.18
2018-11-13T00:45:55.101Z,101332.06
2018-11-13T00:46:56.463Z,101332.83
2018-11-13T00:47:59.344Z,101334.48
2018-11-13T00:49:01.492Z,101332.45
2018-11-13T00:50:02.936Z,101336.17
2018-11-13T00:51:04.788Z,101343.27
2018-11-13T00:52:06.532Z,101338.05
2018-11-13T00:53:08.298Z,101331.53
2018-11-13T00:54:11.161Z,101331.87
2018-11-13T00:55:13.209Z,101338.40
2018-11-13T00:56:14.980Z,101349.41
2018-11-13T00:57:16.975Z,101351.09
2018-11-13T00:58:18.852Z,101351.44
2018-11-13T00:59:20.642Z,101353.70
2018-11-13T01:00:22.484Z,101355.73
2018-11-13T01:01:24.201Z,101351.83
2018-11-13T01:02:26.898Z,101347.38
2018-11-13T01:03:28.830Z,101356.13
2018-11-13T01:04:31.095Z,101357.04
2018-11-13T01:05:33.464Z,101350.14
2018-11-13T01:06:37.156Z,101351.28
2018-11-13T01:07:40.084Z,101349.98
2018-11-13T01:08:42.791Z,101349.06
2018-11-13T01:09:45.564Z,101351.83
2018-11-13T01:10:48.126Z,101355.36
2018-11-13T01:11:50.855Z,101355.73
2018-11-13T01:12:53.981Z,101350.91
2018-11-13T01:13:56.034Z,101352.97
2018-11-13T01:14:59.580Z,101346.06
2018-11-13T01:16:02.209Z,101352.44
2018-11-13T01:17:04.967Z,101347.38
2018-11-13T01:18:08.654Z,101347.22
2018-11-13T01:19:11.430Z,101349.83
2018-11-13T01:20:14.615Z,101348.91
2018-11-13T01:21:17.281Z,101351.13
2018-11-13T01:22:19.997Z,101351.13
2018-11-13T01:23:22.948Z,101346.30
2018-11-13T01:24:25.391Z,101344.77
2018-11-13T01:25:28.366Z,101349.06
2018-11-13T01:26:31.033Z,101353.73
2018-11-13T01:27:33.805Z,101353.52
2018-11-13T01:28:36.682Z,101351.28
2018-11-13T01:29:39.433Z,101347.76
2018-11-13T01:30:42.225Z,101348.67
2018-11-13T01:31:44.588Z,101348.67
2018-11-13T01:32:47.051Z,101347.60
2018-11-13T01:33:49.223Z,101352.44
2018-11-13T01:34:51.110Z,101348.91
2018-11-13T01:35:53.842Z,101351.13
2018-11-13T01:36:55.636Z,101348.52
2018-11-13T01:37:57.939Z,101349.83
2018-11-13T01:39:00.017Z,101351.67
2018-11-13T01:40:01.838Z,101351.13
2018-11-13T01:41:03.639Z,101350.21
2018-11-13T01:42:05.401Z,101347.98
2018-11-13T01:43:07.763Z,101348.37
2018-11-13T01:44:09.691Z,101350.21
2018-11-13T01:45:11.618Z,101350.21
2018-11-13T01:46:13.403Z,101358.42
2018-11-13T01:47:15.190Z,101355.05
2018-11-13T01:48:16.961Z,101355.43
2018-11-13T01:49:18.728Z,101351.90
2018-11-13T01:50:20.480Z,101352.28
2018-11-13T01:51:22.252Z,101350.98
2018-11-13T01:52:24.031Z,101356.20
2018-11-13T01:53:27.448Z,101350.59
2018-11-13T01:54:29.332Z,101350.98
2018-11-13T01:55:31.228Z,101352.28
2018-11-13T01:56:33.001Z,101353.59
2018-11-13T01:57:34.780Z,101355.27
2018-11-13T01:58:36.535Z,101365.70
2018-11-13T01:59:38.838Z,101360.11
2018-11-13T02:00:40.593Z,101362.72
2018-11-13T02:01:42.482Z,101364.41
2018-11-13T02:02:45.093Z,101368.31
2018-11-13T02:03:46.853Z,101366.25
2018-11-13T02:04:49.334Z,101364.41
2018-11-13T02:05:51.139Z,101360.88
2018-11-13T02:06:52.914Z,101365.32
2018-11-13T02:07:55.271Z,101356.96
2018-11-13T02:08:57.037Z,101358.42
2018-11-13T02:09:58.804Z,101356.42
2018-11-13T02:11:00.616Z,101355.66
2018-11-13T02:12:02.405Z,101350.98
2018-11-13T02:13:04.216Z,101347.30
2018-11-13T02:14:05.970Z,101347.45
2018-11-13T02:15:07.900Z,101359.03
2018-11-13T02:16:09.647Z,101350.44
2018-11-13T02:17:12.854Z,101345.06
2018-11-13T02:18:14.612Z,101346.53
2018-11-13T02:19:16.393Z,101344.69
2018-11-13T02:20:19.522Z,101351.20
2018-11-13T02:21:21.297Z,101345.98
2018-11-13T02:22:23.097Z,101348.21
2018-11-13T02:23:24.862Z,101345.98
2018-11-13T02:24:26.633Z,101349.91
2018-11-13T02:25:29.856Z,101349.52
2018-11-13T02:26:31.627Z,101351.20
2018-11-13T02:27:34.296Z,101354.73
2018-11-13T02:28:36.059Z,101352.89
2018-11-13T02:29:39.407Z,101342.84
2018-11-13T02:30:41.172Z,101345.45
2018-11-13T02:31:42.929Z,101347.30
2018-11-13T02:32:47.170Z,101348.59
2018-11-13T02:33:48.951Z,101345.45
2018-11-13T02:34:50.730Z,101344.91
2018-11-13T02:35:52.490Z,101342.08
2018-11-13T02:36:54.247Z,101346.75
2018-11-13T02:37:56.035Z,101349.74
2018-11-13T02:38:57.791Z,101343.61
2018-11-13T02:39:59.555Z,101343.38
2018-11-13T02:41:01.333Z,101346.38
2018-11-13T02:42:03.097Z,101343.77
2018-11-13T02:43:04.875Z,101341.53
2018-11-13T02:44:07.075Z,101341.00
2018-11-13T02:45:08.833Z,101340.23
2018-11-13T02:46:10.617Z,101340.23
2018-11-13T02:47:12.393Z,101341.53
2018-11-13T02:48:14.177Z,101338.39
2018-11-13T02:49:15.939Z,101333.17
2018-11-13T02:50:19.011Z,101330.19
2018-11-13T02:51:20.785Z,101333.17
2018-11-13T02:52:22.580Z,101332.25
2018-11-13T02:53:24.397Z,101327.95
2018-11-13T02:54:26.299Z,101331.48
2018-11-13T02:55:28.045Z,101330.95
2018-11-13T02:56:29.796Z,101330.56
2018-11-13T02:57:31.602Z,101337.47
2018-11-13T02:58:33.363Z,101328.34
2018-11-13T02:59:35.654Z,101333.56
2018-11-13T03:00:37.874Z,101332.25
2018-11-13T03:01:39.642Z,101328.72
2018-11-13T03:02:41.537Z,101327.42
2018-11-13T03:03:43.363Z,101329.64
2018-11-13T03:04:45.135Z,101333.56
2018-11-13T03:05:46.915Z,101335.24
2018-11-13T03:06:49.909Z,101334.33
2018-11-13T03:07:51.663Z,101336.93
2018-11-13T03:08:53.709Z,101333.02
2018-11-13T03:09:55.477Z,101333.02
2018-11-13T03:10:57.377Z,101333.02
2018-11-13T03:11:59.144Z,101336.55
2018-11-13T03:13:00.927Z,101333.17
2018-11-13T03:14:02.725Z,101336.93
2018-11-13T03:15:05.985Z,101335.24
2018-11-13T03:16:07.916Z,101334.70
2018-11-13T03:17:09.692Z,101333.02
2018-11-13T03:18:11.475Z,101329.88
2018-11-13T03:19:13.317Z,101329.11
2018-11-13T03:20:16.230Z,101334.70
2018-11-13T03:21:17.993Z,101330.25
2018-11-13T03:22:19.755Z,101328.19
2018-11-13T03:23:21.866Z,101328.56
2018-11-13T03:24:23.671Z,101327.27
2018-11-13T03:25:25.442Z,101328.56
2018-11-13T03:26:27.209Z,101329.48
2018-11-13T03:27:28.973Z,101329.48
2018-11-13T03:28:30.739Z,101339.16
2018-11-13T03:29:32.534Z,101337.31
2018-11-13T03:30:34.301Z,101341.07
2018-11-13T03:31:36.234Z,101348.67
2018-11-13T03:32:39.112Z,101346.83
2018-11-13T03:33:40.949Z,101349.44
2018-11-13T03:34:42.724Z,101351.66
2018-11-13T03:35:44.474Z,101351.85
2018-11-13T03:36:47.647Z,101357.64
2018-11-13T03:37:49.418Z,101354.65
2018-11-13T03:38:51.179Z,101357.26
2018-11-13T03:39:52.992Z,101348.13
2018-11-13T03:40:54.761Z,101344.98
2018-11-13T03:41:58.403Z,101344.59
2018-11-13T03:43:00.159Z,101344.03
2018-11-13T03:44:01.917Z,101346.29
2018-11-13T03:45:03.699Z,101350.20
2018-11-13T03:46:05.645Z,101342.72
2018-11-13T03:47:07.417Z,101339.38
2018-11-13T03:48:09.189Z,101339.77
2018-11-13T03:49:12.887Z,101338.08
2018-11-13T03:50:15.816Z,101333.98
2018-11-13T03:51:17.634Z,101337.89
2018-11-13T03:52:19.395Z,101336.59
2018-11-13T03:53:21.167Z,101338.47
2018-11-13T03:54:22.932Z,101329.69
2018-11-13T03:55:24.705Z,101329.34
2018-11-13T03:56:26.887Z,101333.98
2018-11-13T03:57:28.843Z,101336.20
2018-11-13T03:58:30.629Z,101338.66
2018-11-13T03:59:32.433Z,101341.80
2018-11-13T04:00:34.278Z,101338.27
2018-11-13T04:01:37.475Z,101336.97
2018-11-13T04:02:39.753Z,101339.19
2018-11-13T04:03:41.528Z,101335.28
2018-11-13T04:04:43.291Z,101330.45
2018-11-13T04:05:45.088Z,101330.45
2018-11-13T04:06:47.023Z,101332.13
2018-11-13T04:07:51.111Z,101326.53
2018-11-13T04:08:53.060Z,101326.92
2018-11-13T04:09:54.812Z,101324.31
2018-11-13T04:10:56.585Z,101315.56
2018-11-13T04:11:58.368Z,101320.25
2018-11-13T04:13:00.118Z,101315.56
2018-11-13T04:14:01.885Z,101314.27
2018-11-13T04:15:03.684Z,101315.56
2018-11-13T04:16:05.468Z,101318.94
2018-11-13T04:17:07.352Z,101316.48
2018-11-13T04:18:09.239Z,101311.27
2018-11-13T04:19:10.986Z,101312.95
2018-11-13T04:20:13.660Z,101312.03
2018-11-13T04:21:15.452Z,101313.72
2018-11-13T04:22:17.976Z,101318.17
2018-11-13T04:23:19.744Z,101317.25
2018-11-13T04:24:21.506Z,101321.55
2018-11-13T04:25:24.218Z,101325.08
2018-11-13T04:26:25.990Z,101322.47
2018-11-13T04:27:27.726Z,101331.44
2018-11-13T04:28:30.037Z,101335.51
2018-11-13T04:29:32.156Z,101338.12
2018-11-13T04:30:34.857Z,101338.88
2018-11-13T04:31:36.661Z,101337.58
2018-11-13T04:32:38.948Z,101339.04
2018-11-13T04:33:40.707Z,101330.14
2018-11-13T04:34:42.459Z,101326.23
2018-11-13T04:35:44.238Z,101322.70
2018-11-13T04:36:46.020Z,101325.30
2018-11-13T04:37:47.772Z,101329.75
2018-11-13T04:38:49.533Z,101329.38
2018-11-13T04:39:51.330Z,101335.36
2018-11-13T04:40:53.103Z,101339.27
2018-11-13T04:41:54.913Z,101344.87
2018-11-13T04:42:56.657Z,101345.78
2018-11-13T04:43:58.417Z,101344.87
2018-11-13T04:45:00.186Z,101346.17
2018-11-13T04:46:01.937Z,101341.72
2018-11-13T04:47:03.830Z,101351.38
2018-11-13T04:48:05.600Z,101355.30
2018-11-13T04:49:07.790Z,101358.28
2018-11-13T04:50:09.879Z,101353.45
2018-11-13T04:51:11.846Z,101357.91
2018-11-13T04:52:13.621Z,101353.45
2018-11-13T04:53:15.398Z,101355.14
2018-11-13T04:54:17.638Z,101346.94
2018-11-13T04:55:19.860Z,101344.33
2018-11-13T04:56:22.361Z,101338.19
2018-11-13T04:57:24.211Z,101336.13
2018-11-13T04:58:25.983Z,101332.59
2018-11-13T04:59:28.957Z,101332.59
2018-11-13T05:00:30.722Z,101333.89
2018-11-13T05:01:34.375Z,101332.97
2018-11-13T05:02:36.266Z,101331.67
2018-11-13T05:03:38.027Z,101323.84
2018-11-13T05:04:39.782Z,101327.76
2018-11-13T05:05:41.602Z,101324.23
2018-11-13T05:06:43.502Z,101324.23
2018-11-13T05:07:47.583Z,101325.53
2018-11-13T05:08:49.364Z,101325.91
2018-11-13T05:09:51.191Z,101329.98
2018-11-13T05:10:52.935Z,101321.63
2018-11-13T05:11:54.683Z,101320.70
2018-11-13T05:12:57.230Z,101319.39
2018-11-13T05:13:59.506Z,101326.45
2018-11-13T05:15:01.266Z,101324.23
2018-11-13T05:16:03.049Z,101330.59
2018-11-13T05:17:04.803Z,101323.69
2018-11-13T05:18:06.596Z,101322.39
2018-11-13T05:19:09.702Z,101329.29
2018-11-13T05:20:12.518Z,101328.52
2018-11-13T05:21:14.276Z,101329.83
2018-11-13T05:22:16.048Z,101333.73
2018-11-13T05:23:19.169Z,101332.82
2018-11-13T05:24:20.969Z,101338.81
2018-11-13T05:25:23.850Z,101339.19
2018-11-13T05:26:25.611Z,101338.81
2018-11-13T05:27:30.429Z,101335.13
2018-11-13T05:28:32.596Z,101332.36
2018-11-13T05:29:34.351Z,101333.13
2018-11-13T05:30:37.839Z,101338.19
2018-11-13T05:31:39.617Z,101332.05
2018-11-13T05:32:41.387Z,101337.65
2018-11-13T05:33:43.187Z,101332.44
2018-11-13T05:34:44.938Z,101338.03
2018-11-13T05:35:46.693Z,101334.28
2018-11-13T05:36:48.457Z,101331.52
2018-11-13T05:37:50.331Z,101340.64
2018-11-13T05:38:52.123Z,101341.56
2018-11-13T05:39:54.606Z,101340.11
2018-11-13T05:40:56.380Z,101343.25
2018-11-13T05:41:58.155Z,101344.94
2018-11-13T05:42:59.925Z,101347.92
2018-11-13T05:44:01.730Z,101346.63
2018-11-13T05:45:03.501Z,101347.92
2018-11-13T05:46:05.278Z,101348.47
2018-11-13T05:47:08.279Z,101352.76
2018-11-13T05:48:10.039Z,101351.84
2018-11-13T05:49:11.834Z,101350.16
2018-11-13T05:50:15.696Z,101346.63
2018-11-13T05:51:17.469Z,101351.45
2018-11-13T05:52:19.234Z,101347.55
2018-11-13T05:53:20.987Z,101344.40
2018-11-13T05:54:22.769Z,101344.40
2018-11-13T05:55:24.604Z,101344.78
2018-11-13T05:56:27.487Z,101343.48
2018-11-13T05:57:29.255Z,101340.48
2018-11-13T05:58:31.031Z,101341.79
2018-11-13T05:59:32.833Z,101343.09
2018-11-13T06:00:34.935Z,101340.87
2018-11-13T06:01:36.717Z,101338.27
2018-11-13T06:02:38.727Z,101340.48
2018-11-13T06:03:40.500Z,101336.95
2018-11-13T06:04:42.383Z,101340.48
2018-11-13T06:05:44.160Z,101337.34
2018-11-13T06:06:46.149Z,101333.05
2018-11-13T06:07:47.907Z,101336.03
2018-11-13T06:08:49.683Z,101332.89
2018-11-13T06:09:51.488Z,101332.13
2018-11-13T06:10:53.255Z,101329.52
2018-11-13T06:11:55.272Z,101332.50
2018-11-13T06:12:57.371Z,101333.43
2018-11-13T06:13:59.133Z,101335.11
2018-11-13T06:15:00.947Z,101331.59
2018-11-13T06:16:02.741Z,101337.34
2018-11-13T06:17:04.548Z,101332.13
2018-11-13T06:18:06.334Z,101333.81
2018-11-13T06:19:08.116Z,101333.27
2018-11-13T06:20:11.427Z,101330.28
2018-11-13T06:21:13.199Z,101339.03
2018-11-13T06:22:14.963Z,101337.19
2018-11-13T06:23:16.711Z,101340.33
2018-11-13T06:24:18.484Z,101340.33
2018-11-13T06:25:21.828Z,101334.96
2018-11-13T06:26:23.586Z,101336.27
2018-11-13T06:27:25.498Z,101339.79
2018-11-13T06:28:27.259Z,101335.88
2018-11-13T06:29:29.062Z,101336.42
2018-11-13T06:30:30.839Z,101338.11
2018-11-13T06:31:32.605Z,101334.96
2018-11-13T06:32:35.726Z,101345.01
2018-11-13T06:33:37.620Z,101343.70
2018-11-13T06:34:39.768Z,101344.44
2018-11-13T06:35:44.734Z,101348.00
2018-11-13T06:36:46.504Z,101351.53
2018-11-13T06:37:48.276Z,101345.39
2018-11-13T06:38:50.095Z,101342.78
2018-11-13T06:39:51.841Z,101346.13
2018-11-13T06:40:53.829Z,101345.01
2018-11-13T06:41:55.592Z,101336.61
2018-11-13T06:42:57.347Z,101343.70
2018-11-13T06:43:59.500Z,101342.78
2018-11-13T06:45:01.278Z,101342.78
2018-11-13T06:46:03.094Z,101344.44
2018-11-13T06:47:04.882Z,101346.13
2018-11-13T06:48:06.802Z,101342.78
2018-11-13T06:49:08.602Z,101343.13
2018-11-13T06:50:10.997Z,101345.73
2018-11-13T06:51:12.781Z,101346.13
2018-11-13T06:52:14.532Z,101347.42
2018-11-13T06:53:16.295Z,101349.11
2018-11-13T06:54:18.061Z,101354.33
2018-11-13T06:55:27.424Z,101362.69
2018-11-13T06:56:29.214Z,101359.16
2018-11-13T06:57:31.859Z,101355.25
2018-11-13T06:58:33.629Z,101354.33
2018-11-13T06:59:35.391Z,101362.15
2018-11-13T07:00:37.184Z,101368.28
2018-11-13T07:01:39.139Z,101366.98
2018-11-13T07:02:41.061Z,101372.58
2018-11-13T07:03:42.869Z,101371.66
2018-11-13T07:04:44.639Z,101372.58
2018-11-13T07:05:46.402Z,101377.80
2018-11-13T07:06:48.636Z,101372.04
2018-11-13T07:07:50.507Z,101367.75
2018-11-13T07:08:52.451Z,101368.67
2018-11-13T07:09:54.206Z,101369.05
2018-11-13T07:10:57.521Z,101362.91
2018-11-13T07:11:59.261Z,101356.02
2018-11-13T07:13:00.997Z,101359.00
2018-11-13T07:14:02.733Z,101356.77
2018-11-13T07:15:04.505Z,101354.33
2018-11-13T07:16:06.297Z,101351.18
2018-11-13T07:17:08.073Z,101348.03
2018-11-13T07:18:09.851Z,101347.65
2018-11-13T07:19:11.650Z,101348.57
2018-11-13T07:20:13.854Z,101348.19
2018-11-13T07:21:15.620Z,101356.94
2018-11-13T07:22:17.394Z,101359.38
2018-11-13T07:23:19.173Z,101356.77
2018-11-13T07:24:20.943Z,101356.39
2018-11-13T07:25:22.992Z,101358.08
2018-11-13T07:26:24.883Z,101358.08
2018-11-13T07:27:26.704Z,101358.46
2018-11-13T07:28:28.459Z,101357.54
2018-11-13T07:29:30.925Z,101361.61
2018-11-13T07:30:32.824Z,101359.38
2018-11-13T07:31:34.605Z,101354.55
2018-11-13T07:32:36.579Z,101353.78
2018-11-13T07:33:38.432Z,101357.70
2018-11-13T07:34:40.251Z,101355.09
2018-11-13T07:35:42.031Z,101355.47
2018-11-13T07:36:43.881Z,101355.86
2018-11-13T07:37:50.517Z,101361.06
2018-11-13T07:38:52.729Z,101353.25
2018-11-13T07:39:54.529Z,101353.25
2018-11-13T07:40:56.471Z,101356.23
2018-11-13T07:41:58.211Z,101358.08
2018-11-13T07:43:00.015Z,101354.02
2018-11-13T07:44:01.796Z,101359.23
2018-11-13T07:45:04.144Z,101352.33
2018-11-13T07:46:05.901Z,101354.94
2018-11-13T07:47:07.750Z,101356.62
2018-11-13T07:48:09.474Z,101347.65
2018-11-13T07:49:11.244Z,101346.57
2018-11-13T07:50:14.767Z,101354.02
2018-11-13T07:51:16.628Z,101351.02
2018-11-13T07:52:18.311Z,101350.48
2018-11-13T07:53:20.103Z,101354.94
2018-11-13T07:54:22.909Z,101356.08
2018-11-13T07:55:25.296Z,101361.45
2018-11-13T07:56:27.079Z,101362.75
2018-11-13T07:57:28.847Z,101356.62
2018-11-13T07:58:30.679Z,101357.00
2018-11-13T07:59:32.959Z,101352.70
2018-11-13T08:00:34.729Z,101352.70
2018-11-13T08:01:36.506Z,101354.94
2018-11-13T08:02:38.316Z,101354.39
2018-11-13T08:03:40.628Z,101360.53
2018-11-13T08:04:43.149Z,101359.61
2018-11-13T08:05:44.970Z,101355.70
2018-11-13T08:06:46.812Z,101359.23
2018-11-13T08:07:48.516Z,101363.52
2018-11-13T08:08:50.300Z,101364.06
2018-11-13T08:09:52.071Z,101363.14
2018-11-13T08:10:53.859Z,101366.13
2018-11-13T08:11:55.638Z,101363.91
2018-11-13T08:12:57.500Z,101369.12
2018-11-13T08:13:59.221Z,101372.65
2018-11-13T08:15:00.980Z,101374.88
2018-11-13T08:16:02.750Z,101366.67
2018-11-13T08:17:04.499Z,101370.58
2018-11-13T08:18:06.258Z,101369.66
2018-11-13T08:19:08.052Z,101368.73
2018-11-13T08:20:10.285Z,101372.65
2018-11-13T08:21:12.233Z,101371.34
2018-11-13T08:22:14.084Z,101371.34
2018-11-13T08:23:16.074Z,101368.35
2018-11-13T08:24:17.928Z,101363.52
2018-11-13T08:25:19.735Z,101360.53
2018-11-13T08:26:21.490Z,101360.91
2018-11-13T08:27:25.110Z,101364.83
2018-11-13T08:28:26.950Z,101367.43
2018-11-13T08:29:29.628Z,101357.92
2018-11-13T08:30:32.176Z,101358.30
2018-11-13T08:31:40.638Z,101362.59
2018-11-13T08:32:42.913Z,101370.04
2018-11-13T08:33:44.674Z,101366.67
2018-11-13T08:34:46.516Z,101369.50
2018-11-13T08:35:48.230Z,101367.43
2018-11-13T08:36:50.535Z,101369.66
2018-11-13T08:37:52.292Z,101371.50
2018-11-13T08:38:54.208Z,101371.88
2018-11-13T08:39:56.047Z,101371.50
2018-11-13T08:40:57.818Z,101366.13
2018-11-13T08:41:59.600Z,101373.95
2018-11-13T08:43:01.426Z,101364.83
2018-11-13T08:44:03.256Z,101371.34
2018-11-13T08:45:06.430Z,101378.02
2018-11-13T08:46:08.276Z,101377.09
2018-11-13T08:47:10.058Z,101381.39
2018-11-13T08:48:11.855Z,101382.31
2018-11-13T08:49:13.790Z,101380.47
2018-11-13T08:50:15.975Z,101378.78
2018-11-13T08:51:17.728Z,101383.23
2018-11-13T08:52:19.478Z,101382.31
2018-11-13T08:53:21.227Z,101390.52
2018-11-13T08:54:22.992Z,101390.14
2018-11-13T08:55:24.774Z,101396.66
2018-11-13T08:56:27.010Z,101390.14
2018-11-13T08:57:28.800Z,101394.05
2018-11-13T08:58:30.643Z,101398.88
2018-11-13T08:59:32.425Z,101397.95
2018-11-13T09:00:34.204Z,101393.66
2018-11-13T09:01:36.036Z,101402.79
2018-11-13T09:02:38.112Z,101394.05
2018-11-13T09:03:39.881Z,101394.05
2018-11-13T09:04:41.649Z,101396.66
2018-11-13T09:05:43.436Z,101401.48
2018-11-13T09:06:46.333Z,101400.19
2018-11-13T09:07:48.117Z,101401.87
2018-11-13T09:08:49.903Z,101409.31
2018-11-13T09:09:51.677Z,101408.39
2018-11-13T09:10:53.484Z,101411.92
2018-11-13T09:11:55.393Z,101408.77
2018-11-13T09:12:57.019Z,101413.60
2018-11-13T09:13:58.782Z,101411.76
2018-11-13T09:15:01.546Z,101409.69
2018-11-13T09:16:03.329Z,101411.76
2018-11-13T09:17:05.108Z,101411.38
2018-11-13T09:18:06.932Z,101412.14
2018-11-13T09:19:08.856Z,101413.45
2018-11-13T09:20:11.726Z,101415.29
2018-11-13T09:21:13.532Z,101412.68
2018-11-13T09:22:15.326Z,101410.07
2018-11-13T09:23:18.240Z,101407.47
2018-11-13T09:24:20.011Z,101413.06
2018-11-13T09:25:22.768Z,101411.38
2018-11-13T09:26:24.554Z,101411.76
2018-11-13T09:27:26.320Z,101413.60
2018-11-13T09:28:28.692Z,101406.92
2018-11-13T09:29:30.461Z,101413.22
2018-11-13T09:30:32.636Z,101418.28
2018-11-13T09:31:34.187Z,101408.77
2018-11-13T09:32:37.670Z,101408.23
2018-11-13T09:33:39.585Z,101406.16
2018-11-13T09:34:41.318Z,101407.30
2018-11-13T09:35:43.105Z,101410.07
2018-11-13T09:36:44.897Z,101411.76
2018-11-13T09:37:46.667Z,101411.76
2018-11-13T09:38:48.437Z,101414.36
2018-11-13T09:39:50.200Z,101412.68
2018-11-13T09:40:51.960Z,101411.76
2018-11-13T09:41:53.756Z,101411.38
2018-11-13T09:42:55.535Z,101406.16
2018-11-13T09:43:57.289Z,101404.31
2018-11-13T09:44:59.116Z,101406.16
2018-11-13T09:46:01.051Z,101405.24
2018-11-13T09:47:02.700Z,101406.92
2018-11-13T09:48:04.471Z,101408.77
2018-11-13T09:49:07.439Z,101405.63
2018-11-13T09:50:09.206Z,101410.84
2018-11-13T09:51:10.972Z,101405.63
2018-11-13T09:52:13.102Z,101406.00
2018-11-13T09:53:16.150Z,101404.70
2018-11-13T09:54:17.866Z,101405.24
2018-11-13T09:55:20.962Z,101396.50
2018-11-13T09:56:22.804Z,101400.95
2018-11-13T09:57:24.571Z,101391.28
2018-11-13T09:58:26.431Z,101401.71
2018-11-13T09:59:28.191Z,101401.71
2018-11-13T10:00:30.123Z,101405.78
2018-11-13T10:01:32.035Z,101410.07
2018-11-13T10:02:34.207Z,101414.75
2018-11-13T10:03:36.099Z,101412.14
2018-11-13T10:04:37.942Z,101410.45
2018-11-13T10:05:39.050Z,101413.60
2018-11-13T10:06:41.340Z,101411.38
2018-11-13T10:07:44.796Z,101409.16
2018-11-13T10:08:46.564Z,101414.36
2018-11-13T10:09:48.311Z,101414.91
2018-11-13T10:10:50.934Z,101413.98
2018-11-13T10:11:52.612Z,101402.63
2018-11-13T10:12:54.399Z,101409.91
2018-11-13T10:13:56.307Z,101409.53
2018-11-13T10:14:58.086Z,101409.16
2018-11-13T10:15:59.850Z,101411.22
2018-11-13T10:17:01.640Z,101410.84
2018-11-13T10:18:03.523Z,101403.39
2018-11-13T10:19:05.207Z,101401.17
2018-11-13T10:20:07.020Z,101401.33
2018-11-13T10:21:08.775Z,101404.31
2018-11-13T10:22:10.539Z,101399.27
2018-11-13T10:23:12.491Z,101393.13
2018-11-13T10:24:14.424Z,101391.28
2018-11-13T10:25:16.249Z,101394.43
2018-11-13T10:26:18.124Z,101395.19
2018-11-13T10:27:19.869Z,101387.38
2018-11-13T10:28:21.641Z,101382.69
2018-11-13T10:29:23.422Z,101383.46
2018-11-13T10:30:25.619Z,101390.52
2018-11-13T10:31:27.593Z,101393.13
2018-11-13T10:32:29.407Z,101389.59
2018-11-13T10:33:31.263Z,101385.84
2018-11-13T10:34:33.046Z,101394.05
2018-11-13T10:35:34.952Z,101393.50
2018-11-13T10:36:36.727Z,101391.82
2018-11-13T10:37:39.067Z,101393.89
2018-11-13T10:38:40.851Z,101396.50
2018-11-13T10:39:42.620Z,101404.31
2018-11-13T10:40:44.509Z,101400.79
2018-11-13T10:41:46.873Z,101396.88
2018-11-13T10:42:48.804Z,101401.33
2018-11-13T10:43:50.976Z,101405.24
2018-11-13T10:44:53.310Z,101403.94
2018-11-13T10:45:55.122Z,101410.30
2018-11-13T10:46:56.917Z,101410.84
2018-11-13T10:47:58.676Z,101409.38
2018-11-13T10:49:00.697Z,101408.07
2018-11-13T10:50:02.456Z,101403.23
2018-11-13T10:51:05.401Z,101414.20
2018-11-13T10:52:07.317Z,101404.16
2018-11-13T10:53:09.080Z,101406.23
2018-11-13T10:54:10.867Z,101409.76
2018-11-13T10:55:14.311Z,101409.38
2018-11-13T10:56:16.079Z,101398.41
2018-11-13T10:57:17.848Z,101402.70
2018-11-13T10:58:19.630Z,101403.48
2018-11-13T10:59:21.499Z,101404.92
2018-11-13T11:00:28.776Z,101403.83
2018-11-13T11:01:36.767Z,101405.98
2018-11-13T11:02:44.092Z,101417.88
2018-11-13T11:03:51.240Z,101407.52
2018-11-13T11:04:53.051Z,101403.45
2018-11-13T11:05:54.819Z,101408.12
2018-11-13T11:06:56.605Z,101404.97
2018-11-13T11:07:58.731Z,101405.89
2018-11-13T11:09:00.521Z,101408.12
2018-11-13T11:10:02.419Z,101407.20
2018-11-13T11:11:04.196Z,101409.42
2018-11-13T11:12:05.976Z,101410.50
2018-11-13T11:13:07.971Z,101412.50
2018-11-13T11:14:09.550Z,101417.39
2018-11-13T11:15:11.345Z,101413.56
2018-11-13T11:16:13.115Z,101415.79
2018-11-13T11:17:15.627Z,101412.71
2018-11-13T11:18:17.406Z,101412.02
2018-11-13T11:19:20.803Z,101416.47
2018-11-13T11:20:22.627Z,101415.09
2018-11-13T11:21:24.398Z,101402.05
2018-11-13T11:22:26.354Z,101416.31
2018-11-13T11:23:28.250Z,101404.38
2018-11-13T11:24:29.899Z,101405.91
2018-11-13T11:25:31.805Z,101406.67
2018-11-13T11:26:33.543Z,101404.84
2018-11-13T11:27:35.731Z,101404.77
2018-11-13T11:28:37.771Z,101412.00
2018-11-13T11:29:39.595Z,101407.85
2018-11-13T11:30:41.406Z,101407.58
2018-11-13T11:31:43.319Z,101408.26
2018-11-13T11:32:45.089Z,101408.64
2018-11-13T11:33:46.876Z,101407.38
2018-11-13T11:34:48.634Z,101415.05
2018-11-13T11:35:50.445Z,101414.44
2018-11-13T11:36:52.239Z,101405.14
2018-11-13T11:37:54.006Z,101411.12
2018-11-13T11:38:56.047Z,101420.42
2018-11-13T11:39:57.720Z,101411.28
2018-11-13T11:40:59.519Z,101413.70
2018-11-13T11:42:01.297Z,101409.06
2018-11-13T11:43:03.079Z,101411.12
2018-11-13T11:44:04.872Z,101406.61
2018-11-13T11:45:07.622Z,101406.06
2018-11-13T11:46:09.428Z,101407.49
2018-11-13T11:47:11.200Z,101410.14
2018-11-13T11:48:13.008Z,101403.84